sensor_id;sensor_type;location;lat;lon;timestamp;P1;durP1;ratioP1;P2;durP2;ratioP2
53890;SDS011;41337;51.400;-2.342;2023-07-29T00:02:06;11.20;;;3.00;;
53890;SDS011;41337;51.400;-2.342;2023-07-29T00:17:18;8.73;;;3.22;;
53890;SDS011;41337;51.400;-2.342;2023-07-29T00:22:24;7.90;;;2.95;;
53890;SDS011;41337;51.400;-2.342;2023-07-29T00:27:26;6.68;;;3.28;;
53890;SDS011;41337;51.400;-2.342;2023-07-29T00:32:31;5.78;;;3.05;;
53890;SDS011;41337;51.400;-2.342;2023-07-29T00:37:36;6.50;;;2.95;;
53890;SDS011;41337;51.400;-2.342;2023-07-29T00:48:12;5.35;;;3.22;;
53890;SDS011;41337;51.400;-2.342;2023-07-29T00:58:45;9.27;;;3.42;;
53890;SDS011;41337;51.400;-2.342;2023-07-29T01:25:27;5.95;;;3.85;;
53890;SDS011;41337;51.400;-2.342;2023-07-29T01:30:39;8.68;;;2.72;;
53890;SDS011;41337;51.400;-2.342;2023-07-29T01:35:52;5.50;;;3.40;;
53890;SDS011;41337;51.400;-2.342;2023-07-29T05:19:46;8.10;;;3.90;;
53890;SDS011;41337;51.400;-2.342;2023-07-29T05:25:15;5.88;;;3.45;;
53890;SDS011;41337;51.400;-2.342;2023-07-29T05:30:23;5.85;;;3.50;;
53890;SDS011;41337;51.400;-2.342;2023-07-29T05:41:04;6.78;;;3.95;;
53890;SDS011;41337;51.400;-2.342;2023-07-29T06:12:52;6.40;;;3.28;;
53890;SDS011;41337;51.400;-2.342;2023-07-29T06:33:39;7.20;;;3.03;;
53890;SDS011;41337;51.400;-2.342;2023-07-29T06:38:44;6.65;;;2.80;;
53890;SDS011;41337;51.400;-2.342;2023-07-29T06:49:18;8.77;;;2.50;;
53890;SDS011;41337;51.400;-2.342;2023-07-29T06:54:25;5.50;;;2.67;;
53890;SDS011;41337;51.400;-2.342;2023-07-29T06:59:30;5.18;;;2.45;;
53890;SDS011;41337;51.400;-2.342;2023-07-29T07:04:34;5.38;;;2.90;;
53890;SDS011;41337;51.400;-2.342;2023-07-29T07:09:36;7.55;;;2.45;;
53890;SDS011;41337;51.400;-2.342;2023-07-29T07:19:45;5.78;;;1.90;;
53890;SDS011;41337;51.400;-2.342;2023-07-29T07:29:51;6.68;;;2.35;;
53890;SDS011;41337;51.400;-2.342;2023-07-29T07:39:58;6.85;;;1.88;;
53890;SDS011;41337;51.400;-2.342;2023-07-29T07:50:03;7.18;;;2.22;;
53890;SDS011;41337;51.400;-2.342;2023-07-29T08:00:10;6.90;;;2.58;;
53890;SDS011;41337;51.400;-2.342;2023-07-29T08:10:16;9.32;;;2.05;;
53890;SDS011;41337;51.400;-2.342;2023-07-29T08:20:25;4.30;;;1.73;;
53890;SDS011;41337;51.400;-2.342;2023-07-29T08:30:32;8.65;;;2.25;;
53890;SDS011;41337;51.400;-2.342;2023-07-29T08:40:42;6.82;;;1.88;;
53890;SDS011;41337;51.400;-2.342;2023-07-29T08:56:09;6.22;;;1.52;;
53890;SDS011;41337;51.400;-2.342;2023-07-29T09:01:15;5.40;;;1.33;;
53890;SDS011;41337;51.400;-2.342;2023-07-29T09:06:18;3.80;;;1.10;;
53890;SDS011;41337;51.400;-2.342;2023-07-29T09:16:27;5.32;;;1.55;;
53890;SDS011;41337;51.400;-2.342;2023-07-29T09:26:33;2.63;;;0.90;;
53890;SDS011;41337;51.400;-2.342;2023-07-29T09:36:38;9.10;;;1.52;;
53890;SDS011;41337;51.400;-2.342;2023-07-29T09:46:45;3.25;;;1.40;;
53890;SDS011;41337;51.400;-2.342;2023-07-29T09:56:52;5.93;;;1.20;;
53890;SDS011;41337;51.400;-2.342;2023-07-29T10:06:58;5.07;;;1.00;;
53890;SDS011;41337;51.400;-2.342;2023-07-29T10:17:05;7.00;;;0.82;;
53890;SDS011;41337;51.400;-2.342;2023-07-29T10:27:14;4.85;;;0.75;;
53890;SDS011;41337;51.400;-2.342;2023-07-29T10:32:21;3.08;;;0.75;;
53890;SDS011;41337;51.400;-2.342;2023-07-29T10:42:29;3.20;;;0.98;;
53890;SDS011;41337;51.400;-2.342;2023-07-29T10:57:41;7.10;;;1.33;;
53890;SDS011;41337;51.400;-2.342;2023-07-29T11:03:02;5.75;;;1.48;;
53890;SDS011;41337;51.400;-2.342;2023-07-29T11:08:15;6.45;;;1.00;;
53890;SDS011;41337;51.400;-2.342;2023-07-29T11:13:31;7.28;;;0.80;;
53890;SDS011;41337;51.400;-2.342;2023-07-29T11:18:34;6.15;;;1.02;;
53890;SDS011;41337;51.400;-2.342;2023-07-29T11:23:36;4.65;;;0.95;;
53890;SDS011;41337;51.400;-2.342;2023-07-29T11:33:40;10.88;;;1.20;;
53890;SDS011;41337;51.400;-2.342;2023-07-29T11:38:40;8.88;;;1.23;;
53890;SDS011;41337;51.400;-2.342;2023-07-29T11:43:41;7.60;;;1.60;;
53890;SDS011;41337;51.400;-2.342;2023-07-29T11:48:46;9.73;;;2.08;;
53890;SDS011;41337;51.400;-2.342;2023-07-29T11:53:49;8.50;;;1.80;;
53890;SDS011;41337;51.400;-2.342;2023-07-29T11:58:50;6.80;;;1.67;;
53890;SDS011;41337;51.400;-2.342;2023-07-29T12:03:51;12.05;;;1.60;;
53890;SDS011;41337;51.400;-2.342;2023-07-29T12:08:52;6.03;;;1.50;;
53890;SDS011;41337;51.400;-2.342;2023-07-29T12:13:54;6.03;;;1.42;;
53890;SDS011;41337;51.400;-2.342;2023-07-29T12:18:58;7.82;;;1.55;;
53890;SDS011;41337;51.400;-2.342;2023-07-29T12:24:02;5.88;;;1.05;;
53890;SDS011;41337;51.400;-2.342;2023-07-29T12:29:16;8.35;;;1.98;;
53890;SDS011;41337;51.400;-2.342;2023-07-29T12:34:26;7.97;;;1.38;;
53890;SDS011;41337;51.400;-2.342;2023-07-29T12:39:31;7.55;;;1.40;;
53890;SDS011;41337;51.400;-2.342;2023-07-29T12:44:43;6.15;;;1.50;;
53890;SDS011;41337;51.400;-2.342;2023-07-29T12:49:46;9.88;;;1.92;;
53890;SDS011;41337;51.400;-2.342;2023-07-29T12:54:47;7.50;;;1.60;;
53890;SDS011;41337;51.400;-2.342;2023-07-29T12:59:50;7.45;;;1.60;;
53890;SDS011;41337;51.400;-2.342;2023-07-29T13:05:05;8.38;;;1.40;;
53890;SDS011;41337;51.400;-2.342;2023-07-29T13:10:07;7.15;;;1.10;;
53890;SDS011;41337;51.400;-2.342;2023-07-29T13:15:10;9.90;;;2.13;;
53890;SDS011;41337;51.400;-2.342;2023-07-29T13:20:13;6.63;;;1.20;;
53890;SDS011;41337;51.400;-2.342;2023-07-29T13:25:14;6.25;;;1.70;;
53890;SDS011;41337;51.400;-2.342;2023-07-29T13:30:14;3.95;;;1.05;;
53890;SDS011;41337;51.400;-2.342;2023-07-29T13:35:15;5.07;;;1.10;;
53890;SDS011;41337;51.400;-2.342;2023-07-29T13:40:16;6.20;;;0.80;;
53890;SDS011;41337;51.400;-2.342;2023-07-29T13:45:23;5.50;;;1.40;;
53890;SDS011;41337;51.400;-2.342;2023-07-29T13:50:24;5.07;;;0.95;;
53890;SDS011;41337;51.400;-2.342;2023-07-29T13:55:25;6.00;;;1.20;;
53890;SDS011;41337;51.400;-2.342;2023-07-29T14:00:28;3.92;;;0.80;;
53890;SDS011;41337;51.400;-2.342;2023-07-29T14:05:35;2.92;;;0.85;;
53890;SDS011;41337;51.400;-2.342;2023-07-29T14:10:36;5.60;;;0.90;;
53890;SDS011;41337;51.400;-2.342;2023-07-29T14:20:41;5.30;;;0.55;;
53890;SDS011;41337;51.400;-2.342;2023-07-29T14:25:42;2.40;;;0.75;;
53890;SDS011;41337;51.400;-2.342;2023-07-29T14:30:42;4.57;;;0.80;;
53890;SDS011;41337;51.400;-2.342;2023-07-29T14:35:43;5.88;;;1.20;;
53890;SDS011;41337;51.400;-2.342;2023-07-29T14:40:47;5.28;;;1.10;;
53890;SDS011;41337;51.400;-2.342;2023-07-29T14:45:52;4.30;;;1.03;;
53890;SDS011;41337;51.400;-2.342;2023-07-29T14:55:56;3.33;;;1.10;;
53890;SDS011;41337;51.400;-2.342;2023-07-29T15:00:57;5.20;;;1.20;;
53890;SDS011;41337;51.400;-2.342;2023-07-29T15:05:58;3.47;;;1.00;;
53890;SDS011;41337;51.400;-2.342;2023-07-29T15:11:01;8.20;;;1.35;;
53890;SDS011;41337;51.400;-2.342;2023-07-29T15:16:02;6.20;;;1.02;;
53890;SDS011;41337;51.400;-2.342;2023-07-29T15:21:04;11.55;;;1.45;;
53890;SDS011;41337;51.400;-2.342;2023-07-29T15:26:11;5.57;;;1.23;;
53890;SDS011;41337;51.400;-2.342;2023-07-29T15:31:14;5.40;;;1.13;;
53890;SDS011;41337;51.400;-2.342;2023-07-29T15:36:14;4.43;;;1.10;;
53890;SDS011;41337;51.400;-2.342;2023-07-29T15:41:16;7.32;;;1.50;;
53890;SDS011;41337;51.400;-2.342;2023-07-29T15:46:16;10.35;;;1.88;;
53890;SDS011;41337;51.400;-2.342;2023-07-29T15:51:18;2.60;;;0.77;;
53890;SDS011;41337;51.400;-2.342;2023-07-29T15:56:19;6.63;;;1.75;;
53890;SDS011;41337;51.400;-2.342;2023-07-29T16:01:21;5.38;;;1.33;;
53890;SDS011;41337;51.400;-2.342;2023-07-29T16:06:23;4.13;;;0.98;;
53890;SDS011;41337;51.400;-2.342;2023-07-29T16:11:26;4.80;;;0.80;;
53890;SDS011;41337;51.400;-2.342;2023-07-29T16:16:28;4.15;;;1.25;;
53890;SDS011;41337;51.400;-2.342;2023-07-29T16:21:29;5.47;;;1.30;;
53890;SDS011;41337;51.400;-2.342;2023-07-29T16:26:30;6.95;;;1.55;;
53890;SDS011;41337;51.400;-2.342;2023-07-29T16:36:44;4.15;;;1.05;;
53890;SDS011;41337;51.400;-2.342;2023-07-29T16:41:45;12.75;;;1.23;;
53890;SDS011;41337;51.400;-2.342;2023-07-29T16:46:47;7.25;;;1.58;;
53890;SDS011;41337;51.400;-2.342;2023-07-29T16:51:48;5.00;;;1.17;;
53890;SDS011;41337;51.400;-2.342;2023-07-29T16:56:50;6.47;;;1.25;;
53890;SDS011;41337;51.400;-2.342;2023-07-29T17:01:51;5.70;;;1.30;;
53890;SDS011;41337;51.400;-2.342;2023-07-29T17:06:52;5.93;;;1.83;;
53890;SDS011;41337;51.400;-2.342;2023-07-29T17:11:55;6.30;;;1.88;;
53890;SDS011;41337;51.400;-2.342;2023-07-29T17:16:59;6.97;;;1.90;;
53890;SDS011;41337;51.400;-2.342;2023-07-29T17:22:00;10.68;;;1.98;;
53890;SDS011;41337;51.400;-2.342;2023-07-29T17:27:01;7.80;;;1.67;;
53890;SDS011;41337;51.400;-2.342;2023-07-29T17:32:03;9.10;;;1.88;;
53890;SDS011;41337;51.400;-2.342;2023-07-29T17:37:04;11.45;;;1.83;;
53890;SDS011;41337;51.400;-2.342;2023-07-29T17:42:05;10.15;;;1.50;;
53890;SDS011;41337;51.400;-2.342;2023-07-29T17:47:13;13.13;;;1.70;;
53890;SDS011;41337;51.400;-2.342;2023-07-29T17:52:17;7.32;;;1.17;;
53890;SDS011;41337;51.400;-2.342;2023-07-29T17:57:19;10.20;;;1.02;;
53890;SDS011;41337;51.400;-2.342;2023-07-29T18:02:20;6.75;;;1.77;;
53890;SDS011;41337;51.400;-2.342;2023-07-29T18:07:20;5.88;;;1.17;;
53890;SDS011;41337;51.400;-2.342;2023-07-29T18:12:27;6.18;;;1.40;;
53890;SDS011;41337;51.400;-2.342;2023-07-29T18:17:29;5.45;;;1.30;;
53890;SDS011;41337;51.400;-2.342;2023-07-29T18:22:33;7.78;;;1.60;;
53890;SDS011;41337;51.400;-2.342;2023-07-29T18:27:34;8.70;;;1.70;;
53890;SDS011;41337;51.400;-2.342;2023-07-29T18:32:36;8.88;;;1.80;;
53890;SDS011;41337;51.400;-2.342;2023-07-29T18:37:37;4.57;;;1.27;;
53890;SDS011;41337;51.400;-2.342;2023-07-29T18:42:40;9.10;;;1.60;;
53890;SDS011;41337;51.400;-2.342;2023-07-29T18:47:41;9.88;;;1.60;;
53890;SDS011;41337;51.400;-2.342;2023-07-29T18:52:42;8.10;;;1.50;;
53890;SDS011;41337;51.400;-2.342;2023-07-29T18:57:43;5.90;;;1.45;;
53890;SDS011;41337;51.400;-2.342;2023-07-29T19:02:44;7.95;;;1.55;;
53890;SDS011;41337;51.400;-2.342;2023-07-29T19:07:45;8.88;;;1.40;;
53890;SDS011;41337;51.400;-2.342;2023-07-29T19:12:47;6.50;;;1.48;;
53890;SDS011;41337;51.400;-2.342;2023-07-29T19:17:50;6.97;;;1.13;;
53890;SDS011;41337;51.400;-2.342;2023-07-29T19:22:51;8.32;;;1.35;;
53890;SDS011;41337;51.400;-2.342;2023-07-29T19:27:51;8.38;;;1.75;;
53890;SDS011;41337;51.400;-2.342;2023-07-29T19:32:53;9.40;;;2.05;;
53890;SDS011;41337;51.400;-2.342;2023-07-29T19:37:53;7.47;;;1.30;;
53890;SDS011;41337;51.400;-2.342;2023-07-29T19:42:55;10.48;;;1.23;;
53890;SDS011;41337;51.400;-2.342;2023-07-29T19:47:56;8.68;;;1.58;;
53890;SDS011;41337;51.400;-2.342;2023-07-29T19:52:57;6.32;;;1.40;;
53890;SDS011;41337;51.400;-2.342;2023-07-29T19:57:58;5.75;;;1.35;;
53890;SDS011;41337;51.400;-2.342;2023-07-29T20:02:59;8.63;;;1.73;;
53890;SDS011;41337;51.400;-2.342;2023-07-29T20:08:00;4.00;;;1.33;;
53890;SDS011;41337;51.400;-2.342;2023-07-29T20:13:02;7.72;;;1.33;;
53890;SDS011;41337;51.400;-2.342;2023-07-29T20:18:05;3.75;;;0.95;;
53890;SDS011;41337;51.400;-2.342;2023-07-29T20:23:06;7.18;;;1.67;;
53890;SDS011;41337;51.400;-2.342;2023-07-29T20:28:07;6.80;;;1.50;;
53890;SDS011;41337;51.400;-2.342;2023-07-29T20:33:08;5.85;;;1.20;;
53890;SDS011;41337;51.400;-2.342;2023-07-29T20:38:09;11.05;;;2.08;;
53890;SDS011;41337;51.400;-2.342;2023-07-29T20:48:20;6.25;;;1.20;;
53890;SDS011;41337;51.400;-2.342;2023-07-29T20:53:22;9.15;;;1.90;;
53890;SDS011;41337;51.400;-2.342;2023-07-29T20:58:22;5.82;;;1.13;;
53890;SDS011;41337;51.400;-2.342;2023-07-29T21:03:23;8.95;;;1.10;;
53890;SDS011;41337;51.400;-2.342;2023-07-29T21:08:26;7.53;;;1.33;;
53890;SDS011;41337;51.400;-2.342;2023-07-29T21:13:27;6.45;;;1.40;;
53890;SDS011;41337;51.400;-2.342;2023-07-29T21:18:28;6.13;;;1.83;;
53890;SDS011;41337;51.400;-2.342;2023-07-29T21:23:28;7.18;;;1.45;;
53890;SDS011;41337;51.400;-2.342;2023-07-29T21:28:30;7.72;;;1.33;;
53890;SDS011;41337;51.400;-2.342;2023-07-29T21:33:30;4.55;;;1.02;;
53890;SDS011;41337;51.400;-2.342;2023-07-29T21:38:37;6.78;;;1.42;;
53890;SDS011;41337;51.400;-2.342;2023-07-29T21:43:44;5.38;;;0.70;;
53890;SDS011;41337;51.400;-2.342;2023-07-29T21:48:46;3.87;;;0.87;;
53890;SDS011;41337;51.400;-2.342;2023-07-29T21:53:53;1.55;;;1.27;;
53890;SDS011;41337;51.400;-2.342;2023-07-29T21:58:53;1.58;;;0.70;;
53890;SDS011;41337;51.400;-2.342;2023-07-29T22:03:54;4.80;;;1.10;;
53890;SDS011;41337;51.400;-2.342;2023-07-29T22:08:55;6.25;;;0.88;;
53890;SDS011;41337;51.400;-2.342;2023-07-29T22:13:58;2.97;;;0.70;;
53890;SDS011;41337;51.400;-2.342;2023-07-29T22:19:01;3.78;;;0.88;;
53890;SDS011;41337;51.400;-2.342;2023-07-29T22:24:04;2.95;;;1.08;;
53890;SDS011;41337;51.400;-2.342;2023-07-29T22:34:11;5.20;;;1.27;;
53890;SDS011;41337;51.400;-2.342;2023-07-29T22:39:15;6.32;;;1.45;;
53890;SDS011;41337;51.400;-2.342;2023-07-29T22:44:16;7.30;;;1.38;;
53890;SDS011;41337;51.400;-2.342;2023-07-29T22:49:17;6.45;;;1.17;;
53890;SDS011;41337;51.400;-2.342;2023-07-29T22:54:17;7.53;;;1.13;;
53890;SDS011;41337;51.400;-2.342;2023-07-29T22:59:18;7.28;;;1.13;;
53890;SDS011;41337;51.400;-2.342;2023-07-29T23:04:19;7.75;;;1.20;;
53890;SDS011;41337;51.400;-2.342;2023-07-29T23:09:20;7.55;;;1.60;;
53890;SDS011;41337;51.400;-2.342;2023-07-29T23:14:21;4.93;;;1.60;;
53890;SDS011;41337;51.400;-2.342;2023-07-29T23:19:23;4.88;;;1.10;;
53890;SDS011;41337;51.400;-2.342;2023-07-29T23:24:24;4.55;;;1.05;;
53890;SDS011;41337;51.400;-2.342;2023-07-29T23:29:27;6.97;;;1.10;;
53890;SDS011;41337;51.400;-2.342;2023-07-29T23:34:35;5.90;;;1.30;;
53890;SDS011;41337;51.400;-2.342;2023-07-29T23:44:36;5.05;;;1.25;;
53890;SDS011;41337;51.400;-2.342;2023-07-29T23:49:37;6.35;;;1.40;;
